San Francisco, CA

10:22 AM PST on December 21, 2014 (GMT -0800)
San Francisco International | Change Station
CLOSE
Current Station
Airport
Location: San Francisco,
Elevation: 16 ft
Nearby Weather Stations
Active Advisory: Coastal Flood Advisory

Elev 16 ft 37.62 °N, 122.37 °W | Updated 26 minutes ago

Overcast
Overcast
61 °F
Feels Like 61 °F
N
9
Wind Variable Wind from WNW

Today
High -- | Low -- °F
--% Chance of Precip.
Yesterday
High -- | Low -- °F
Precip. -- in
7:20 AM 4:54 PM
Waning Crescent, 0% visible
Pressure 30.32 in
Visibility 6.0 miles
Clouds Few 300 ft
Mostly Cloudy 500 ft
Overcast 1000 ft
Dew Point 61 °F
Humidity 100%
Rainfall 0.02 in
Snow Depth Not available.
UV 1 out of 12
Pollen 4.00 out of 12
Air Quality Not available.
Flu Activity Not available.
METAR KSFO 211756Z 29008KT 6SM BR FEW003 BKN005 OVC010 16/16 A3032 RMK AO2 SLP267 60001 T01610161 10161 20150 53013

More Conditions Fewer Conditions

Pressure 30.32 in
Visibility 6.0 miles
Clouds Few 300 ft
Mostly Cloudy 500 ft
Overcast 1000 ft
Dew Point 61 °F
Humidity 100%
Rainfall 0.02 in
Snow Depth Not available.
UV 1 out of 12
Pollen 4.00 out of 12
Air Quality Not available.
Flu Activity Not available.
METAR KSFO 211756Z 29008KT 6SM BR FEW003 BKN005 OVC010 16/16 A3032 RMK AO2 SLP267 60001 T01610161 10161 20150 53013

More Conditions Fewer Conditions

10-Day Weather Forecast

Almanac

Astronomy

Dec. 21, 2014 Rise Set
Actual Time
Civil Twilight
Nautical Twilight
Astronomical Twilight
Moon
Length of Visible Light
Length of Day
Tomorrow will be .
, % of the Moon is Illuminated

Today's Extremes

State Highs State Lows

Community

WunderPhotos

Upload Photos

1,779,446 photos uploaded!

WunderBlogs® & News

Nearby

Air Quality

  Air Quality AQ Index Pollutant
Not available.

Snow Depth

Station Depth Elevation

Earthquake Activity

City Distance Mag. Time & Date
Minimum magnitude displayed is 2.5.

Coastal Water Temperatures

Place Temperature

Nearby Weather Stations